sensor_id;sensor_type;location;lat;lon;timestamp;P1;durP1;ratioP1;P2;durP2;ratioP2
11535;SDS011;5824;49.336;8.652;2024-03-02T00:01:21;18.63;;;9.50;;
11535;SDS011;5824;49.336;8.652;2024-03-02T00:03:47;17.37;;;10.17;;
11535;SDS011;5824;49.336;8.652;2024-03-02T00:06:13;17.30;;;9.90;;
11535;SDS011;5824;49.336;8.652;2024-03-02T00:08:38;19.83;;;11.00;;
11535;SDS011;5824;49.336;8.652;2024-03-02T00:11:04;17.73;;;10.27;;
11535;SDS011;5824;49.336;8.652;2024-03-02T00:13:29;19.90;;;11.20;;
11535;SDS011;5824;49.336;8.652;2024-03-02T00:15:57;19.23;;;11.33;;
11535;SDS011;5824;49.336;8.652;2024-03-02T00:18:33;20.43;;;10.70;;
11535;SDS011;5824;49.336;8.652;2024-03-02T00:21:00;21.03;;;11.33;;
11535;SDS011;5824;49.336;8.652;2024-03-02T00:23:27;21.47;;;10.23;;
11535;SDS011;5824;49.336;8.652;2024-03-02T00:25:55;19.90;;;11.30;;
11535;SDS011;5824;49.336;8.652;2024-03-02T00:28:22;21.40;;;10.93;;
11535;SDS011;5824;49.336;8.652;2024-03-02T00:33:22;19.90;;;11.50;;
11535;SDS011;5824;49.336;8.652;2024-03-02T00:35:50;20.77;;;11.23;;
11535;SDS011;5824;49.336;8.652;2024-03-02T00:38:16;17.43;;;11.00;;
11535;SDS011;5824;49.336;8.652;2024-03-02T00:40:42;16.97;;;11.20;;
11535;SDS011;5824;49.336;8.652;2024-03-02T00:43:51;19.93;;;11.37;;
11535;SDS011;5824;49.336;8.652;2024-03-02T00:46:10;20.73;;;9.87;;
11535;SDS011;5824;49.336;8.652;2024-03-02T00:48:36;21.57;;;10.10;;
11535;SDS011;5824;49.336;8.652;2024-03-02T00:51:02;17.43;;;10.53;;
11535;SDS011;5824;49.336;8.652;2024-03-02T00:53:29;20.50;;;10.57;;
11535;SDS011;5824;49.336;8.652;2024-03-02T00:55:56;20.57;;;12.40;;
11535;SDS011;5824;49.336;8.652;2024-03-02T00:58:21;18.80;;;11.33;;
11535;SDS011;5824;49.336;8.652;2024-03-02T01:00:47;23.23;;;11.47;;
11535;SDS011;5824;49.336;8.652;2024-03-02T01:03:12;19.70;;;10.70;;
11535;SDS011;5824;49.336;8.652;2024-03-02T01:05:44;19.53;;;11.33;;
11535;SDS011;5824;49.336;8.652;2024-03-02T01:08:10;18.80;;;10.40;;
11535;SDS011;5824;49.336;8.652;2024-03-02T01:10:36;18.80;;;11.27;;
11535;SDS011;5824;49.336;8.652;2024-03-02T01:13:01;17.33;;;11.07;;
11535;SDS011;5824;49.336;8.652;2024-03-02T01:15:27;19.50;;;10.77;;
11535;SDS011;5824;49.336;8.652;2024-03-02T01:17:52;20.40;;;11.07;;
11535;SDS011;5824;49.336;8.652;2024-03-02T01:20:18;22.87;;;11.73;;
11535;SDS011;5824;49.336;8.652;2024-03-02T01:22:43;18.67;;;10.83;;
11535;SDS011;5824;49.336;8.652;2024-03-02T01:25:09;17.97;;;10.43;;
11535;SDS011;5824;49.336;8.652;2024-03-02T01:27:35;17.73;;;9.97;;
11535;SDS011;5824;49.336;8.652;2024-03-02T01:30:00;19.17;;;10.40;;
11535;SDS011;5824;49.336;8.652;2024-03-02T01:32:26;19.60;;;10.67;;
11535;SDS011;5824;49.336;8.652;2024-03-02T01:34:51;19.80;;;10.60;;
11535;SDS011;5824;49.336;8.652;2024-03-02T01:37:17;19.13;;;11.43;;
11535;SDS011;5824;49.336;8.652;2024-03-02T01:39:43;21.90;;;10.87;;
11535;SDS011;5824;49.336;8.652;2024-03-02T01:42:08;24.03;;;11.60;;
11535;SDS011;5824;49.336;8.652;2024-03-02T01:44:35;18.97;;;10.90;;
11535;SDS011;5824;49.336;8.652;2024-03-02T01:47:01;20.70;;;11.53;;
11535;SDS011;5824;49.336;8.652;2024-03-02T01:49:26;22.30;;;12.50;;
11535;SDS011;5824;49.336;8.652;2024-03-02T01:55:14;17.57;;;11.37;;
11535;SDS011;5824;49.336;8.652;2024-03-02T01:57:40;17.67;;;9.53;;
11535;SDS011;5824;49.336;8.652;2024-03-02T02:00:05;17.93;;;11.03;;
11535;SDS011;5824;49.336;8.652;2024-03-02T02:02:32;16.43;;;10.10;;
11535;SDS011;5824;49.336;8.652;2024-03-02T02:04:57;16.40;;;10.00;;
11535;SDS011;5824;49.336;8.652;2024-03-02T02:07:23;18.20;;;9.23;;
11535;SDS011;5824;49.336;8.652;2024-03-02T02:09:48;16.97;;;10.00;;
11535;SDS011;5824;49.336;8.652;2024-03-02T02:12:13;14.77;;;8.80;;
11535;SDS011;5824;49.336;8.652;2024-03-02T02:14:46;20.23;;;10.33;;
11535;SDS011;5824;49.336;8.652;2024-03-02T02:17:13;15.23;;;9.20;;
11535;SDS011;5824;49.336;8.652;2024-03-02T02:19:40;17.20;;;9.37;;
11535;SDS011;5824;49.336;8.652;2024-03-02T02:22:06;13.50;;;8.87;;
11535;SDS011;5824;49.336;8.652;2024-03-02T02:24:31;15.63;;;9.27;;
11535;SDS011;5824;49.336;8.652;2024-03-02T02:26:57;17.83;;;9.83;;
11535;SDS011;5824;49.336;8.652;2024-03-02T02:29:22;17.40;;;9.23;;
11535;SDS011;5824;49.336;8.652;2024-03-02T02:31:48;14.17;;;8.90;;
11535;SDS011;5824;49.336;8.652;2024-03-02T02:34:14;15.13;;;9.50;;
11535;SDS011;5824;49.336;8.652;2024-03-02T02:36:40;19.97;;;9.63;;
11535;SDS011;5824;49.336;8.652;2024-03-02T02:39:06;16.53;;;9.10;;
11535;SDS011;5824;49.336;8.652;2024-03-02T02:41:33;18.07;;;9.67;;
11535;SDS011;5824;49.336;8.652;2024-03-02T02:43:58;17.30;;;9.70;;
11535;SDS011;5824;49.336;8.652;2024-03-02T02:46:24;16.90;;;9.63;;
11535;SDS011;5824;49.336;8.652;2024-03-02T02:48:49;16.57;;;9.37;;
11535;SDS011;5824;49.336;8.652;2024-03-02T02:51:18;16.00;;;9.43;;
11535;SDS011;5824;49.336;8.652;2024-03-02T02:53:43;14.43;;;8.40;;
11535;SDS011;5824;49.336;8.652;2024-03-02T02:56:09;13.90;;;8.97;;
11535;SDS011;5824;49.336;8.652;2024-03-02T02:58:34;16.07;;;9.00;;
11535;SDS011;5824;49.336;8.652;2024-03-02T03:01:00;16.10;;;9.40;;
11535;SDS011;5824;49.336;8.652;2024-03-02T03:03:26;16.90;;;9.50;;
11535;SDS011;5824;49.336;8.652;2024-03-02T03:05:51;13.93;;;8.70;;
11535;SDS011;5824;49.336;8.652;2024-03-02T03:08:17;17.03;;;10.23;;
11535;SDS011;5824;49.336;8.652;2024-03-02T03:10:42;15.43;;;9.67;;
11535;SDS011;5824;49.336;8.652;2024-03-02T03:13:08;17.77;;;9.83;;
11535;SDS011;5824;49.336;8.652;2024-03-02T03:15:36;16.33;;;9.50;;
11535;SDS011;5824;49.336;8.652;2024-03-02T03:18:03;15.80;;;9.60;;
11535;SDS011;5824;49.336;8.652;2024-03-02T03:20:29;14.57;;;9.13;;
11535;SDS011;5824;49.336;8.652;2024-03-02T03:22:55;18.30;;;10.77;;
11535;SDS011;5824;49.336;8.652;2024-03-02T03:25:21;19.27;;;10.00;;
11535;SDS011;5824;49.336;8.652;2024-03-02T03:27:46;18.37;;;10.20;;
11535;SDS011;5824;49.336;8.652;2024-03-02T03:30:12;15.47;;;9.63;;
11535;SDS011;5824;49.336;8.652;2024-03-02T03:32:38;17.17;;;9.70;;
11535;SDS011;5824;49.336;8.652;2024-03-02T03:35:04;17.03;;;9.73;;
11535;SDS011;5824;49.336;8.652;2024-03-02T03:37:29;17.50;;;9.80;;
11535;SDS011;5824;49.336;8.652;2024-03-02T03:40:01;17.43;;;10.60;;
11535;SDS011;5824;49.336;8.652;2024-03-02T03:42:27;16.43;;;9.90;;
11535;SDS011;5824;49.336;8.652;2024-03-02T03:44:53;15.73;;;9.30;;
11535;SDS011;5824;49.336;8.652;2024-03-02T03:47:19;17.50;;;9.60;;
11535;SDS011;5824;49.336;8.652;2024-03-02T03:49:45;17.07;;;9.87;;
11535;SDS011;5824;49.336;8.652;2024-03-02T03:52:10;19.27;;;10.40;;
11535;SDS011;5824;49.336;8.652;2024-03-02T03:54:36;19.27;;;9.90;;
11535;SDS011;5824;49.336;8.652;2024-03-02T03:57:03;17.53;;;10.43;;
11535;SDS011;5824;49.336;8.652;2024-03-02T03:59:29;18.60;;;10.33;;
11535;SDS011;5824;49.336;8.652;2024-03-02T04:01:55;17.47;;;9.67;;
11535;SDS011;5824;49.336;8.652;2024-03-02T04:04:20;15.57;;;9.47;;
11535;SDS011;5824;49.336;8.652;2024-03-02T04:06:46;15.97;;;9.50;;
11535;SDS011;5824;49.336;8.652;2024-03-02T04:09:12;17.33;;;10.37;;
11535;SDS011;5824;49.336;8.652;2024-03-02T04:11:37;17.23;;;10.73;;
11535;SDS011;5824;49.336;8.652;2024-03-02T04:14:03;21.77;;;10.53;;
11535;SDS011;5824;49.336;8.652;2024-03-02T04:16:28;19.30;;;9.70;;
11535;SDS011;5824;49.336;8.652;2024-03-02T04:18:54;17.73;;;9.97;;
11535;SDS011;5824;49.336;8.652;2024-03-02T04:21:19;14.80;;;9.57;;
11535;SDS011;5824;49.336;8.652;2024-03-02T04:23:45;16.43;;;10.00;;
11535;SDS011;5824;49.336;8.652;2024-03-02T04:26:11;16.13;;;9.33;;
11535;SDS011;5824;49.336;8.652;2024-03-02T04:28:36;17.23;;;10.17;;
11535;SDS011;5824;49.336;8.652;2024-03-02T04:31:02;18.50;;;9.80;;
11535;SDS011;5824;49.336;8.652;2024-03-02T04:33:27;17.00;;;9.77;;
11535;SDS011;5824;49.336;8.652;2024-03-02T04:35:53;16.53;;;9.47;;
11535;SDS011;5824;49.336;8.652;2024-03-02T04:38:18;17.13;;;9.60;;
11535;SDS011;5824;49.336;8.652;2024-03-02T04:40:44;16.50;;;9.90;;
11535;SDS011;5824;49.336;8.652;2024-03-02T04:43:09;15.60;;;9.17;;
11535;SDS011;5824;49.336;8.652;2024-03-02T04:45:37;17.20;;;9.37;;
11535;SDS011;5824;49.336;8.652;2024-03-02T04:48:03;20.17;;;9.70;;
11535;SDS011;5824;49.336;8.652;2024-03-02T04:50:29;16.30;;;9.30;;
11535;SDS011;5824;49.336;8.652;2024-03-02T04:52:55;15.10;;;8.70;;
11535;SDS011;5824;49.336;8.652;2024-03-02T04:55:20;17.67;;;9.27;;
11535;SDS011;5824;49.336;8.652;2024-03-02T04:58:04;17.43;;;9.73;;
11535;SDS011;5824;49.336;8.652;2024-03-02T05:00:29;17.00;;;10.57;;
11535;SDS011;5824;49.336;8.652;2024-03-02T05:02:54;15.33;;;9.47;;
11535;SDS011;5824;49.336;8.652;2024-03-02T05:05:20;17.10;;;10.13;;
11535;SDS011;5824;49.336;8.652;2024-03-02T05:07:45;17.40;;;9.90;;
11535;SDS011;5824;49.336;8.652;2024-03-02T05:10:11;14.10;;;8.87;;
11535;SDS011;5824;49.336;8.652;2024-03-02T05:12:36;16.47;;;9.63;;
11535;SDS011;5824;49.336;8.652;2024-03-02T05:15:08;16.53;;;9.97;;
11535;SDS011;5824;49.336;8.652;2024-03-02T05:17:35;16.30;;;9.13;;
11535;SDS011;5824;49.336;8.652;2024-03-02T05:20:01;15.40;;;8.70;;
11535;SDS011;5824;49.336;8.652;2024-03-02T05:22:27;17.13;;;9.43;;
11535;SDS011;5824;49.336;8.652;2024-03-02T05:24:53;17.57;;;10.10;;
11535;SDS011;5824;49.336;8.652;2024-03-02T05:27:18;16.63;;;9.23;;
11535;SDS011;5824;49.336;8.652;2024-03-02T05:29:44;15.93;;;9.80;;
11535;SDS011;5824;49.336;8.652;2024-03-02T05:32:09;16.23;;;9.30;;
11535;SDS011;5824;49.336;8.652;2024-03-02T05:34:35;14.53;;;9.30;;
11535;SDS011;5824;49.336;8.652;2024-03-02T05:37:01;18.67;;;10.03;;
11535;SDS011;5824;49.336;8.652;2024-03-02T05:39:26;17.90;;;9.10;;
11535;SDS011;5824;49.336;8.652;2024-03-02T05:41:52;19.20;;;9.70;;
11535;SDS011;5824;49.336;8.652;2024-03-02T05:44:17;15.23;;;9.53;;
11535;SDS011;5824;49.336;8.652;2024-03-02T05:46:44;13.60;;;8.80;;
11535;SDS011;5824;49.336;8.652;2024-03-02T05:49:11;17.47;;;9.43;;
11535;SDS011;5824;49.336;8.652;2024-03-02T05:51:36;16.70;;;9.97;;
11535;SDS011;5824;49.336;8.652;2024-03-02T05:54:02;16.00;;;9.13;;
11535;SDS011;5824;49.336;8.652;2024-03-02T05:56:28;17.23;;;9.20;;
11535;SDS011;5824;49.336;8.652;2024-03-02T05:58:53;17.57;;;9.07;;
11535;SDS011;5824;49.336;8.652;2024-03-02T06:01:44;17.80;;;9.00;;
11535;SDS011;5824;49.336;8.652;2024-03-02T06:04:16;15.10;;;9.27;;
11535;SDS011;5824;49.336;8.652;2024-03-02T06:06:42;18.33;;;9.07;;
11535;SDS011;5824;49.336;8.652;2024-03-02T06:09:08;17.57;;;10.20;;
11535;SDS011;5824;49.336;8.652;2024-03-02T06:11:37;16.03;;;9.53;;
11535;SDS011;5824;49.336;8.652;2024-03-02T06:14:08;15.53;;;9.10;;
11535;SDS011;5824;49.336;8.652;2024-03-02T06:16:34;13.33;;;8.60;;
11535;SDS011;5824;49.336;8.652;2024-03-02T06:19:00;18.20;;;8.60;;
11535;SDS011;5824;49.336;8.652;2024-03-02T06:21:26;13.83;;;7.90;;
11535;SDS011;5824;49.336;8.652;2024-03-02T06:23:52;16.00;;;7.97;;
11535;SDS011;5824;49.336;8.652;2024-03-02T06:26:18;15.80;;;8.47;;
11535;SDS011;5824;49.336;8.652;2024-03-02T06:28:44;15.70;;;8.63;;
11535;SDS011;5824;49.336;8.652;2024-03-02T06:31:10;14.00;;;8.87;;
11535;SDS011;5824;49.336;8.652;2024-03-02T06:33:36;19.20;;;9.80;;
11535;SDS011;5824;49.336;8.652;2024-03-02T06:36:02;17.77;;;9.87;;
11535;SDS011;5824;49.336;8.652;2024-03-02T06:38:28;19.80;;;9.30;;
11535;SDS011;5824;49.336;8.652;2024-03-02T06:40:53;15.30;;;9.57;;
11535;SDS011;5824;49.336;8.652;2024-03-02T06:43:20;17.87;;;9.87;;
11535;SDS011;5824;49.336;8.652;2024-03-02T06:45:49;17.00;;;9.13;;
11535;SDS011;5824;49.336;8.652;2024-03-02T06:48:16;14.87;;;8.73;;
11535;SDS011;5824;49.336;8.652;2024-03-02T06:50:45;19.60;;;9.20;;
11535;SDS011;5824;49.336;8.652;2024-03-02T06:53:14;11.50;;;7.30;;
11535;SDS011;5824;49.336;8.652;2024-03-02T06:55:42;16.20;;;8.97;;
11535;SDS011;5824;49.336;8.652;2024-03-02T06:58:09;15.50;;;8.40;;
11535;SDS011;5824;49.336;8.652;2024-03-02T07:00:36;14.27;;;8.60;;
11535;SDS011;5824;49.336;8.652;2024-03-02T07:03:01;14.53;;;8.30;;
11535;SDS011;5824;49.336;8.652;2024-03-02T07:05:27;12.53;;;8.40;;
11535;SDS011;5824;49.336;8.652;2024-03-02T07:07:52;14.23;;;8.97;;
11535;SDS011;5824;49.336;8.652;2024-03-02T07:10:18;15.53;;;8.40;;
11535;SDS011;5824;49.336;8.652;2024-03-02T07:12:43;14.83;;;8.20;;
11535;SDS011;5824;49.336;8.652;2024-03-02T07:15:09;19.27;;;9.00;;
11535;SDS011;5824;49.336;8.652;2024-03-02T07:17:53;15.20;;;8.07;;
11535;SDS011;5824;49.336;8.652;2024-03-02T07:20:19;13.07;;;8.10;;
11535;SDS011;5824;49.336;8.652;2024-03-02T07:22:44;17.20;;;8.97;;
11535;SDS011;5824;49.336;8.652;2024-03-02T07:25:10;14.20;;;8.77;;
11535;SDS011;5824;49.336;8.652;2024-03-02T07:27:35;15.73;;;8.90;;
11535;SDS011;5824;49.336;8.652;2024-03-02T07:30:02;17.00;;;8.70;;
11535;SDS011;5824;49.336;8.652;2024-03-02T07:32:28;15.07;;;8.60;;
11535;SDS011;5824;49.336;8.652;2024-03-02T07:34:53;16.23;;;8.90;;
11535;SDS011;5824;49.336;8.652;2024-03-02T07:37:19;13.00;;;7.70;;
11535;SDS011;5824;49.336;8.652;2024-03-02T07:39:45;17.03;;;8.07;;
11535;SDS011;5824;49.336;8.652;2024-03-02T07:42:10;13.20;;;8.43;;
11535;SDS011;5824;49.336;8.652;2024-03-02T07:44:36;22.63;;;8.40;;
11535;SDS011;5824;49.336;8.652;2024-03-02T07:47:02;15.87;;;7.67;;
11535;SDS011;5824;49.336;8.652;2024-03-02T07:49:28;14.80;;;8.63;;
11535;SDS011;5824;49.336;8.652;2024-03-02T07:51:53;16.67;;;9.07;;
11535;SDS011;5824;49.336;8.652;2024-03-02T07:54:19;13.87;;;8.67;;
11535;SDS011;5824;49.336;8.652;2024-03-02T07:56:44;14.27;;;7.80;;
11535;SDS011;5824;49.336;8.652;2024-03-02T07:59:10;15.17;;;8.47;;
11535;SDS011;5824;49.336;8.652;2024-03-02T08:01:35;15.20;;;8.30;;
11535;SDS011;5824;49.336;8.652;2024-03-02T08:04:01;14.30;;;8.63;;
11535;SDS011;5824;49.336;8.652;2024-03-02T08:06:30;14.70;;;8.37;;
11535;SDS011;5824;49.336;8.652;2024-03-02T08:08:56;12.90;;;7.70;;
11535;SDS011;5824;49.336;8.652;2024-03-02T08:11:22;13.57;;;8.13;;
11535;SDS011;5824;49.336;8.652;2024-03-02T08:13:48;12.80;;;7.50;;
11535;SDS011;5824;49.336;8.652;2024-03-02T08:16:14;14.83;;;8.17;;
11535;SDS011;5824;49.336;8.652;2024-03-02T08:18:41;15.20;;;7.33;;
11535;SDS011;5824;49.336;8.652;2024-03-02T08:21:07;11.20;;;6.87;;
11535;SDS011;5824;49.336;8.652;2024-03-02T08:23:33;16.03;;;7.20;;
11535;SDS011;5824;49.336;8.652;2024-03-02T08:25:59;10.30;;;6.23;;
11535;SDS011;5824;49.336;8.652;2024-03-02T08:28:25;12.00;;;6.17;;
11535;SDS011;5824;49.336;8.652;2024-03-02T08:30:50;11.77;;;6.50;;
11535;SDS011;5824;49.336;8.652;2024-03-02T08:33:16;11.07;;;6.73;;
11535;SDS011;5824;49.336;8.652;2024-03-02T08:35:41;10.13;;;6.47;;
11535;SDS011;5824;49.336;8.652;2024-03-02T08:38:07;9.93;;;6.57;;
11535;SDS011;5824;49.336;8.652;2024-03-02T08:40:32;13.37;;;7.00;;
11535;SDS011;5824;49.336;8.652;2024-03-02T08:42:58;12.00;;;7.23;;
11535;SDS011;5824;49.336;8.652;2024-03-02T08:45:23;10.67;;;6.60;;
11535;SDS011;5824;49.336;8.652;2024-03-02T08:47:49;11.80;;;6.97;;
11535;SDS011;5824;49.336;8.652;2024-03-02T08:50:14;12.77;;;7.20;;
11535;SDS011;5824;49.336;8.652;2024-03-02T08:52:40;8.43;;;5.70;;
11535;SDS011;5824;49.336;8.652;2024-03-02T08:55:06;11.07;;;6.63;;
11535;SDS011;5824;49.336;8.652;2024-03-02T08:57:32;8.75;;;6.35;;
11535;SDS011;5824;49.336;8.652;2024-03-02T08:59:58;10.20;;;6.70;;
11535;SDS011;5824;49.336;8.652;2024-03-02T09:02:24;12.43;;;7.20;;
11535;SDS011;5824;49.336;8.652;2024-03-02T09:04:50;13.57;;;7.60;;
11535;SDS011;5824;49.336;8.652;2024-03-02T09:07:15;11.40;;;6.90;;
11535;SDS011;5824;49.336;8.652;2024-03-02T09:09:41;10.70;;;7.03;;
11535;SDS011;5824;49.336;8.652;2024-03-02T09:12:06;11.63;;;7.73;;
11535;SDS011;5824;49.336;8.652;2024-03-02T09:14:32;10.73;;;6.80;;
11535;SDS011;5824;49.336;8.652;2024-03-02T09:16:58;11.07;;;7.30;;
11535;SDS011;5824;49.336;8.652;2024-03-02T09:19:24;11.33;;;8.07;;
11535;SDS011;5824;49.336;8.652;2024-03-02T09:21:49;13.07;;;8.23;;
11535;SDS011;5824;49.336;8.652;2024-03-02T09:24:15;11.00;;;7.37;;
11535;SDS011;5824;49.336;8.652;2024-03-02T09:26:40;11.20;;;6.77;;
11535;SDS011;5824;49.336;8.652;2024-03-02T09:29:06;9.73;;;6.33;;
11535;SDS011;5824;49.336;8.652;2024-03-02T09:31:31;8.93;;;6.40;;
11535;SDS011;5824;49.336;8.652;2024-03-02T09:33:57;9.30;;;6.97;;
11535;SDS011;5824;49.336;8.652;2024-03-02T09:36:23;10.20;;;7.63;;
11535;SDS011;5824;49.336;8.652;2024-03-02T09:38:49;10.10;;;7.40;;
11535;SDS011;5824;49.336;8.652;2024-03-02T09:41:15;10.30;;;7.40;;
11535;SDS011;5824;49.336;8.652;2024-03-02T09:43:40;10.07;;;7.07;;
11535;SDS011;5824;49.336;8.652;2024-03-02T09:46:07;11.10;;;7.37;;
11535;SDS011;5824;49.336;8.652;2024-03-02T09:48:35;10.73;;;6.60;;
11535;SDS011;5824;49.336;8.652;2024-03-02T09:51:00;11.03;;;7.17;;
11535;SDS011;5824;49.336;8.652;2024-03-02T09:53:29;8.67;;;6.60;;
11535;SDS011;5824;49.336;8.652;2024-03-02T09:55:58;9.40;;;6.50;;
11535;SDS011;5824;49.336;8.652;2024-03-02T09:58:24;8.73;;;6.03;;
11535;SDS011;5824;49.336;8.652;2024-03-02T10:00:50;9.45;;;6.50;;
11535;SDS011;5824;49.336;8.652;2024-03-02T10:03:15;9.73;;;6.95;;
11535;SDS011;5824;49.336;8.652;2024-03-02T10:05:43;8.95;;;6.15;;
11535;SDS011;5824;49.336;8.652;2024-03-02T10:08:08;8.07;;;5.95;;
11535;SDS011;5824;49.336;8.652;2024-03-02T10:10:37;9.75;;;6.53;;
11535;SDS011;5824;49.336;8.652;2024-03-02T10:13:08;8.05;;;5.80;;
11535;SDS011;5824;49.336;8.652;2024-03-02T10:15:38;8.70;;;6.47;;
11535;SDS011;5824;49.336;8.652;2024-03-02T10:18:10;7.63;;;5.75;;
11535;SDS011;5824;49.336;8.652;2024-03-02T10:20:37;8.27;;;6.32;;
11535;SDS011;5824;49.336;8.652;2024-03-02T10:23:10;11.40;;;7.35;;
11535;SDS011;5824;49.336;8.652;2024-03-02T10:25:37;9.20;;;6.13;;
11535;SDS011;5824;49.336;8.652;2024-03-02T10:28:03;8.68;;;5.70;;
11535;SDS011;5824;49.336;8.652;2024-03-02T10:30:30;8.35;;;5.68;;
11535;SDS011;5824;49.336;8.652;2024-03-02T10:32:56;10.65;;;6.60;;
11535;SDS011;5824;49.336;8.652;2024-03-02T10:35:22;9.27;;;6.78;;
11535;SDS011;5824;49.336;8.652;2024-03-02T10:37:48;8.82;;;6.82;;
11535;SDS011;5824;49.336;8.652;2024-03-02T10:40:14;8.13;;;6.13;;
11535;SDS011;5824;49.336;8.652;2024-03-02T10:42:40;7.32;;;5.45;;
11535;SDS011;5824;49.336;8.652;2024-03-02T10:45:08;9.70;;;6.75;;
11535;SDS011;5824;49.336;8.652;2024-03-02T10:47:36;9.27;;;6.65;;
11535;SDS011;5824;49.336;8.652;2024-03-02T10:50:04;8.52;;;5.93;;
11535;SDS011;5824;49.336;8.652;2024-03-02T10:52:33;11.77;;;7.20;;
11535;SDS011;5824;49.336;8.652;2024-03-02T10:54:59;9.35;;;7.07;;
11535;SDS011;5824;49.336;8.652;2024-03-02T10:57:25;8.27;;;6.13;;
11535;SDS011;5824;49.336;8.652;2024-03-02T10:59:56;9.95;;;6.35;;
11535;SDS011;5824;49.336;8.652;2024-03-02T11:02:26;7.50;;;5.70;;
11535;SDS011;5824;49.336;8.652;2024-03-02T11:04:54;7.50;;;5.13;;
11535;SDS011;5824;49.336;8.652;2024-03-02T11:07:21;8.02;;;6.00;;
11535;SDS011;5824;49.336;8.652;2024-03-02T11:09:51;10.48;;;6.15;;
11535;SDS011;5824;49.336;8.652;2024-03-02T11:12:35;7.88;;;5.53;;
11535;SDS011;5824;49.336;8.652;2024-03-02T11:15:04;14.15;;;6.47;;
11535;SDS011;5824;49.336;8.652;2024-03-02T11:17:34;12.48;;;6.18;;
11535;SDS011;5824;49.336;8.652;2024-03-02T11:20:00;9.38;;;7.28;;
11535;SDS011;5824;49.336;8.652;2024-03-02T11:22:27;10.38;;;6.75;;
11535;SDS011;5824;49.336;8.652;2024-03-02T11:24:53;8.65;;;6.63;;
11535;SDS011;5824;49.336;8.652;2024-03-02T11:32:59;9.13;;;6.32;;
11535;SDS011;5824;49.336;8.652;2024-03-02T11:35:25;8.20;;;6.32;;
11535;SDS011;5824;49.336;8.652;2024-03-02T11:37:51;12.65;;;6.90;;
11535;SDS011;5824;49.336;8.652;2024-03-02T11:40:27;8.30;;;5.95;;
11535;SDS011;5824;49.336;8.652;2024-03-02T11:42:53;8.05;;;5.95;;
11535;SDS011;5824;49.336;8.652;2024-03-02T11:45:23;7.80;;;5.85;;
11535;SDS011;5824;49.336;8.652;2024-03-02T11:47:50;7.47;;;5.00;;
11535;SDS011;5824;49.336;8.652;2024-03-02T11:50:50;6.22;;;4.95;;
11535;SDS011;5824;49.336;8.652;2024-03-02T11:53:12;8.07;;;5.30;;
11535;SDS011;5824;49.336;8.652;2024-03-02T11:55:38;6.85;;;5.00;;
11535;SDS011;5824;49.336;8.652;2024-03-02T11:58:14;8.18;;;5.53;;
11535;SDS011;5824;49.336;8.652;2024-03-02T12:00:45;6.63;;;4.88;;
11535;SDS011;5824;49.336;8.652;2024-03-02T12:03:12;6.60;;;5.00;;
11535;SDS011;5824;49.336;8.652;2024-03-02T12:05:39;7.63;;;5.40;;
11535;SDS011;5824;49.336;8.652;2024-03-02T12:08:07;6.70;;;5.25;;
11535;SDS011;5824;49.336;8.652;2024-03-02T12:10:34;8.52;;;5.95;;
11535;SDS011;5824;49.336;8.652;2024-03-02T12:13:01;9.52;;;5.47;;
11535;SDS011;5824;49.336;8.652;2024-03-02T12:15:29;7.55;;;5.60;;
11535;SDS011;5824;49.336;8.652;2024-03-02T12:17:59;6.72;;;5.28;;
11535;SDS011;5824;49.336;8.652;2024-03-02T12:20:26;7.82;;;5.93;;
11535;SDS011;5824;49.336;8.652;2024-03-02T12:22:54;7.03;;;5.63;;
11535;SDS011;5824;49.336;8.652;2024-03-02T12:25:22;7.70;;;5.43;;
11535;SDS011;5824;49.336;8.652;2024-03-02T12:27:49;7.32;;;5.18;;
11535;SDS011;5824;49.336;8.652;2024-03-02T12:30:17;7.05;;;5.15;;
11535;SDS011;5824;49.336;8.652;2024-03-02T12:32:44;10.52;;;5.35;;
11535;SDS011;5824;49.336;8.652;2024-03-02T12:35:10;7.35;;;5.35;;
11535;SDS011;5824;49.336;8.652;2024-03-02T12:37:45;7.47;;;5.45;;
11535;SDS011;5824;49.336;8.652;2024-03-02T12:40:12;10.23;;;5.20;;
11535;SDS011;5824;49.336;8.652;2024-03-02T12:42:38;5.50;;;4.50;;
11535;SDS011;5824;49.336;8.652;2024-03-02T12:45:05;7.53;;;5.32;;
11535;SDS011;5824;49.336;8.652;2024-03-02T12:47:31;7.10;;;5.28;;
11535;SDS011;5824;49.336;8.652;2024-03-02T12:49:58;8.10;;;5.43;;
11535;SDS011;5824;49.336;8.652;2024-03-02T12:52:24;6.70;;;5.15;;
11535;SDS011;5824;49.336;8.652;2024-03-02T12:54:49;7.13;;;5.07;;
11535;SDS011;5824;49.336;8.652;2024-03-02T12:57:18;6.05;;;4.75;;
11535;SDS011;5824;49.336;8.652;2024-03-02T12:59:47;5.82;;;4.43;;
11535;SDS011;5824;49.336;8.652;2024-03-02T13:02:19;6.22;;;4.82;;
11535;SDS011;5824;49.336;8.652;2024-03-02T13:04:51;6.22;;;5.18;;
11535;SDS011;5824;49.336;8.652;2024-03-02T13:07:19;7.03;;;5.05;;
11535;SDS011;5824;49.336;8.652;2024-03-02T13:09:45;8.35;;;4.78;;
11535;SDS011;5824;49.336;8.652;2024-03-02T13:12:11;6.78;;;4.13;;
11535;SDS011;5824;49.336;8.652;2024-03-02T13:14:36;5.20;;;4.05;;
11535;SDS011;5824;49.336;8.652;2024-03-02T13:17:02;7.88;;;4.47;;
11535;SDS011;5824;49.336;8.652;2024-03-02T13:19:30;6.20;;;4.80;;
11535;SDS011;5824;49.336;8.652;2024-03-02T13:21:56;6.63;;;4.43;;
11535;SDS011;5824;49.336;8.652;2024-03-02T13:24:22;6.97;;;4.32;;
11535;SDS011;5824;49.336;8.652;2024-03-02T13:26:50;6.15;;;4.30;;
11535;SDS011;5824;49.336;8.652;2024-03-02T13:29:20;7.25;;;4.43;;
11535;SDS011;5824;49.336;8.652;2024-03-02T13:31:46;8.07;;;4.47;;
11535;SDS011;5824;49.336;8.652;2024-03-02T13:34:12;4.20;;;3.03;;
11535;SDS011;5824;49.336;8.652;2024-03-02T13:36:37;4.78;;;3.30;;
11535;SDS011;5824;49.336;8.652;2024-03-02T13:39:03;5.47;;;3.80;;
11535;SDS011;5824;49.336;8.652;2024-03-02T13:41:35;7.85;;;4.35;;
11535;SDS011;5824;49.336;8.652;2024-03-02T13:44:01;5.65;;;3.92;;
11535;SDS011;5824;49.336;8.652;2024-03-02T13:46:26;7.13;;;4.18;;
11535;SDS011;5824;49.336;8.652;2024-03-02T13:48:52;5.50;;;3.83;;
11535;SDS011;5824;49.336;8.652;2024-03-02T13:51:19;5.88;;;3.90;;
11535;SDS011;5824;49.336;8.652;2024-03-02T13:53:45;6.40;;;3.60;;
11535;SDS011;5824;49.336;8.652;2024-03-02T13:56:11;6.57;;;3.90;;
11535;SDS011;5824;49.336;8.652;2024-03-02T13:58:36;5.28;;;3.85;;
11535;SDS011;5824;49.336;8.652;2024-03-02T14:01:02;5.10;;;3.50;;
11535;SDS011;5824;49.336;8.652;2024-03-02T14:03:29;6.10;;;3.10;;
11535;SDS011;5824;49.336;8.652;2024-03-02T14:05:55;6.15;;;3.00;;
11535;SDS011;5824;49.336;8.652;2024-03-02T14:08:21;5.35;;;3.03;;
11535;SDS011;5824;49.336;8.652;2024-03-02T14:10:46;3.87;;;2.67;;
11535;SDS011;5824;49.336;8.652;2024-03-02T14:13:12;5.00;;;2.50;;
11535;SDS011;5824;49.336;8.652;2024-03-02T14:15:37;4.43;;;2.70;;
11535;SDS011;5824;49.336;8.652;2024-03-02T14:18:06;4.40;;;2.80;;
11535;SDS011;5824;49.336;8.652;2024-03-02T14:20:31;4.23;;;3.00;;
11535;SDS011;5824;49.336;8.652;2024-03-02T14:22:58;4.40;;;2.37;;
11535;SDS011;5824;49.336;8.652;2024-03-02T14:25:24;5.07;;;2.50;;
11535;SDS011;5824;49.336;8.652;2024-03-02T14:27:50;5.67;;;2.60;;
11535;SDS011;5824;49.336;8.652;2024-03-02T14:30:16;6.47;;;3.20;;
11535;SDS011;5824;49.336;8.652;2024-03-02T14:32:41;5.00;;;3.23;;
11535;SDS011;5824;49.336;8.652;2024-03-02T14:35:07;4.93;;;2.67;;
11535;SDS011;5824;49.336;8.652;2024-03-02T14:37:35;5.03;;;2.83;;
11535;SDS011;5824;49.336;8.652;2024-03-02T14:40:01;5.00;;;2.47;;
11535;SDS011;5824;49.336;8.652;2024-03-02T14:42:27;4.17;;;2.10;;
11535;SDS011;5824;49.336;8.652;2024-03-02T14:44:56;5.40;;;2.57;;
11535;SDS011;5824;49.336;8.652;2024-03-02T14:47:22;3.73;;;2.27;;
11535;SDS011;5824;49.336;8.652;2024-03-02T14:49:47;4.67;;;2.50;;
11535;SDS011;5824;49.336;8.652;2024-03-02T14:52:13;4.23;;;2.47;;
11535;SDS011;5824;49.336;8.652;2024-03-02T14:54:39;4.27;;;2.40;;
11535;SDS011;5824;49.336;8.652;2024-03-02T14:57:04;4.90;;;2.60;;
11535;SDS011;5824;49.336;8.652;2024-03-02T14:59:30;4.30;;;2.60;;